createdAt,value
2018-06-18T00:00:54.490Z,100285.92
2018-06-18T00:03:22.326Z,100281.39
2018-06-18T00:05:52.378Z,100283.22
2018-06-18T00:08:19.970Z,100281.39
2018-06-18T00:13:21.767Z,100284.23
2018-06-18T00:15:49.374Z,100273.60
2018-06-18T00:18:17.225Z,100279.52
2018-06-18T00:20:44.820Z,100287.77
2018-06-18T00:23:12.386Z,100295.68
2018-06-18T00:25:40.250Z,100305.13
2018-06-18T00:28:08.775Z,100298.91
2018-06-18T00:30:37.006Z,100294.33
2018-06-18T00:33:04.886Z,100287.25
2018-06-18T00:35:32.567Z,100291.45
2018-06-18T00:38:00.130Z,100284.37
2018-06-18T00:40:27.730Z,100279.50
2018-06-18T00:42:55.561Z,100289.77
2018-06-18T00:45:24.779Z,100286.73
2018-06-18T00:47:52.363Z,100279.98
2018-06-18T00:50:19.926Z,100279.50
2018-06-18T00:52:48.363Z,100276.80
2018-06-18T00:55:15.963Z,100282.20
2018-06-18T00:57:43.549Z,100283.02
2018-06-18T01:00:11.104Z,100282.69
2018-06-18T01:02:39.522Z,100281.83
2018-06-18T01:05:07.069Z,100271.04
2018-06-18T01:07:34.632Z,100274.59
2018-06-18T01:10:02.258Z,100264.82
2018-06-18T01:12:30.136Z,100260.25
2018-06-18T01:14:58.549Z,100250.80
2018-06-18T01:17:26.126Z,100248.63
2018-06-18T01:19:53.706Z,100251.33
2018-06-18T01:22:21.569Z,100251.82
2018-06-18T01:24:49.146Z,100257.22
2018-06-18T01:27:17.695Z,100242.91
2018-06-18T01:29:45.255Z,100246.95
2018-06-18T01:32:13.362Z,100248.12
2018-06-18T01:34:41.802Z,100253.36
2018-06-18T01:37:09.375Z,100257.89
2018-06-18T01:39:37.787Z,100261.78
2018-06-18T01:42:05.651Z,100265.83
2018-06-18T01:44:33.298Z,100258.23
2018-06-18T01:47:00.866Z,100261.78
2018-06-18T01:49:28.460Z,100256.88
2018-06-18T01:51:56.304Z,100259.58
2018-06-18T01:54:23.871Z,100269.36
2018-06-18T01:56:51.480Z,100268.00
2018-06-18T01:59:19.350Z,100268.86
2018-06-18T02:01:47.442Z,100262.28
2018-06-18T02:04:15.019Z,100263.96
2018-06-18T02:06:42.597Z,100261.27
2018-06-18T02:09:11.750Z,100274.41
2018-06-18T02:11:39.567Z,100267.34
2018-06-18T02:14:07.198Z,100261.94
2018-06-18T02:16:34.831Z,100258.91
2018-06-18T02:19:02.726Z,100258.05
2018-06-18T02:21:30.298Z,100271.37
2018-06-18T02:23:57.847Z,100266.66
2018-06-18T02:26:25.410Z,100270.89
2018-06-18T02:28:58.227Z,100267.67
2018-06-18T02:31:30.882Z,100265.50
2018-06-18T02:34:03.386Z,100259.24
2018-06-18T02:36:36.349Z,100265.98
2018-06-18T02:39:12.926Z,100260.25
2018-06-18T02:41:40.577Z,100265.98
2018-06-18T02:44:08.558Z,100271.72
2018-06-18T02:46:36.122Z,100268.69
2018-06-18T02:49:03.721Z,100267.00
2018-06-18T02:51:31.294Z,100266.66
2018-06-18T02:54:13.608Z,100268.02
2018-06-18T02:56:41.338Z,100272.55
2018-06-18T02:59:08.956Z,100265.47
2018-06-18T03:01:36.879Z,100268.69
2018-06-18T03:04:04.873Z,100274.91
2018-06-18T03:06:32.536Z,100272.22
2018-06-18T03:09:00.286Z,100278.13
2018-06-18T03:11:28.293Z,100281.66
2018-06-18T03:13:56.287Z,100280.83
2018-06-18T03:16:24.233Z,100285.36
2018-06-18T03:21:01.172Z,100285.36
2018-06-18T03:23:33.802Z,100287.57
2018-06-18T03:26:06.363Z,100285.70
2018-06-18T03:28:39.305Z,100291.62
2018-06-18T03:31:07.898Z,100290.42
2018-06-18T03:33:35.590Z,100282.48
2018-06-18T03:36:03.475Z,100292.26
2018-06-18T03:38:31.057Z,100290.09
2018-06-18T03:40:58.743Z,100295.48
2018-06-18T03:43:27.590Z,100287.05
2018-06-18T03:45:55.180Z,100289.75
2018-06-18T03:48:22.883Z,100283.49
2018-06-18T03:50:51.158Z,100281.66
2018-06-18T03:53:19.083Z,100275.41
2018-06-18T03:55:46.692Z,100275.41
2018-06-18T03:58:14.295Z,100279.45
2018-06-18T04:00:47.124Z,100276.41
2018-06-18T04:03:19.764Z,100285.00
2018-06-18T04:05:52.316Z,100287.70
2018-06-18T04:08:19.907Z,100283.84
2018-06-18T04:10:53.875Z,100284.66
2018-06-18T04:13:21.474Z,100280.13
2018-06-18T04:15:49.069Z,100282.48
2018-06-18T04:18:16.674Z,100276.57
2018-06-18T04:20:44.254Z,100278.78
2018-06-18T04:23:11.822Z,100279.27
2018-06-18T04:25:39.674Z,100285.19
2018-06-18T04:28:07.381Z,100285.19
2018-06-18T04:30:34.975Z,100279.42
2018-06-18T04:33:02.819Z,100281.30
2018-06-18T04:35:30.437Z,100274.55
2018-06-18T04:37:58.035Z,100275.04
2018-06-18T04:40:26.935Z,100274.22
2018-06-18T04:42:59.437Z,100283.66
2018-06-18T04:45:32.156Z,100284.48
2018-06-18T04:48:05.212Z,100280.77
2018-06-18T04:50:37.934Z,100285.34
2018-06-18T04:53:05.794Z,100275.04
2018-06-18T04:55:33.383Z,100274.03
2018-06-18T04:58:00.990Z,100275.38
2018-06-18T05:00:28.858Z,100270.84
2018-06-18T05:02:56.440Z,100275.38
2018-06-18T05:05:24.088Z,100275.22
2018-06-18T05:07:51.970Z,100276.91
2018-06-18T05:10:19.597Z,100267.31
2018-06-18T05:12:48.147Z,100265.81
2018-06-18T05:15:16.016Z,100267.65
2018-06-18T05:17:43.587Z,100272.03
2018-06-18T05:20:11.174Z,100273.07
2018-06-18T05:22:39.015Z,100271.05
2018-06-18T05:25:06.606Z,100270.89
2018-06-18T05:27:34.574Z,100281.00
2018-06-18T05:30:02.453Z,100281.83
2018-06-18T05:32:31.079Z,100284.37
2018-06-18T05:34:58.666Z,100289.61
2018-06-18T05:37:27.498Z,100288.11
2018-06-18T05:39:55.195Z,100292.98
2018-06-18T05:42:24.350Z,100291.97
2018-06-18T05:44:52.708Z,100293.99
2018-06-18T05:47:20.340Z,100292.48
2018-06-18T05:49:47.948Z,100294.17
2018-06-18T05:52:15.795Z,100292.67
2018-06-18T05:54:43.365Z,100293.00
2018-06-18T05:57:10.934Z,100287.95
2018-06-18T05:59:38.766Z,100283.25
2018-06-18T06:02:06.334Z,100289.47
2018-06-18T06:04:33.903Z,100284.59
2018-06-18T06:07:01.757Z,100290.00
2018-06-18T06:09:29.337Z,100299.44
2018-06-18T06:11:57.602Z,100293.88
2018-06-18T06:14:25.506Z,100294.06
2018-06-18T06:16:53.189Z,100293.38
2018-06-18T06:19:20.745Z,100284.27
2018-06-18T06:21:48.627Z,100291.04
2018-06-18T06:24:17.169Z,100291.37
2018-06-18T06:26:44.746Z,100290.02
2018-06-18T06:29:12.603Z,100290.35
2018-06-18T06:31:40.192Z,100296.94
2018-06-18T06:34:07.832Z,100286.30
2018-06-18T06:36:35.698Z,100298.78
2018-06-18T06:39:03.382Z,100292.73
2018-06-18T06:41:31.178Z,100295.25
2018-06-18T06:43:59.028Z,100291.04
2018-06-18T06:46:26.606Z,100293.25
2018-06-18T06:48:56.508Z,100297.11
2018-06-18T06:51:24.354Z,100297.81
2018-06-18T06:53:51.923Z,100301.52
2018-06-18T06:56:19.548Z,100303.53
2018-06-18T06:58:47.388Z,100314.02
2018-06-18T07:01:14.993Z,100306.92
2018-06-18T07:03:42.567Z,100305.25
2018-06-18T07:06:10.606Z,100308.63
2018-06-18T07:08:38.195Z,100312.36
2018-06-18T07:11:06.339Z,100315.23
2018-06-18T07:13:34.337Z,100307.64
2018-06-18T07:16:02.657Z,100309.01
2018-06-18T07:18:30.226Z,100313.38
2018-06-18T07:20:58.315Z,100311.03
2018-06-18T07:23:25.888Z,100312.88
2018-06-18T07:25:53.570Z,100309.14
2018-06-18T07:28:21.474Z,100314.41
2018-06-18T07:30:49.257Z,100324.70
2018-06-18T07:33:16.816Z,100319.80
2018-06-18T07:35:44.742Z,100317.43
2018-06-18T07:38:12.961Z,100313.36
2018-06-18T07:40:40.553Z,100312.34
2018-06-18T07:43:08.454Z,100308.95
2018-06-18T07:45:36.030Z,100306.95
2018-06-18T07:48:03.634Z,100313.00
2018-06-18T07:50:31.782Z,100311.66
2018-06-18T07:52:59.334Z,100314.33
2018-06-18T07:55:28.549Z,100318.39
2018-06-18T07:57:56.386Z,100316.02
2018-06-18T08:00:25.603Z,100322.78
2018-06-18T08:02:53.204Z,100322.45
2018-06-18T08:05:22.384Z,100331.06
2018-06-18T08:07:49.977Z,100323.97
2018-06-18T08:10:17.579Z,100316.85
2018-06-18T08:12:45.427Z,100303.50
2018-06-18T08:15:13.192Z,100311.98
2018-06-18T08:17:40.779Z,100316.87
2018-06-18T08:20:08.382Z,100316.67
2018-06-18T08:22:36.716Z,100318.86
2018-06-18T08:25:04.586Z,100317.50
2018-06-18T08:27:35.229Z,100316.81
2018-06-18T08:30:02.988Z,100319.35
2018-06-18T08:32:30.863Z,100329.81
2018-06-18T08:34:58.430Z,100327.27
2018-06-18T08:37:26.714Z,100331.49
2018-06-18T08:39:54.623Z,100327.11
2018-06-18T08:42:22.242Z,100324.23
2018-06-18T08:44:49.846Z,100332.52
2018-06-18T08:47:17.750Z,100334.23
2018-06-18T08:49:50.282Z,100319.19
2018-06-18T08:52:22.791Z,100326.77
2018-06-18T08:54:55.450Z,100326.11
2018-06-18T08:57:28.463Z,100324.23
2018-06-18T09:00:01.209Z,100320.88
2018-06-18T09:02:32.901Z,100310.88
2018-06-18T09:05:00.613Z,100317.27
2018-06-18T09:07:31.479Z,100322.69
2018-06-18T09:09:59.486Z,100319.62
2018-06-18T09:12:27.126Z,100319.61
2018-06-18T09:14:54.757Z,100324.00
2018-06-18T09:17:22.660Z,100317.56
2018-06-18T09:19:52.134Z,100311.46
2018-06-18T09:22:20.366Z,100304.20
2018-06-18T09:24:49.101Z,100316.17
2018-06-18T09:27:16.687Z,100322.91
2018-06-18T09:29:48.303Z,100315.64
2018-06-18T09:32:16.198Z,100319.53
2018-06-18T09:34:44.570Z,100310.22
2018-06-18T09:37:12.141Z,100319.70
2018-06-18T09:39:40.859Z,100321.87
2018-06-18T09:42:08.484Z,100325.61
2018-06-18T09:44:36.123Z,100316.13
2018-06-18T09:47:04.380Z,100303.12
2018-06-18T09:49:37.029Z,100300.09
2018-06-18T09:52:09.582Z,100294.48
2018-06-18T09:54:42.521Z,100289.72
2018-06-18T09:57:15.035Z,100293.40
2018-06-18T09:59:47.674Z,100278.45
2018-06-18T10:02:18.403Z,100277.22
2018-06-18T10:04:46.018Z,100279.34
2018-06-18T10:07:13.618Z,100292.66
2018-06-18T10:09:41.528Z,100292.83
2018-06-18T10:12:09.376Z,100297.52
2018-06-18T10:14:37.647Z,100304.94
2018-06-18T10:17:05.510Z,100303.86
2018-06-18T10:19:33.138Z,100306.22
2018-06-18T10:22:00.758Z,100309.41
2018-06-18T10:24:31.051Z,100306.86
2018-06-18T10:26:58.650Z,100308.54
2018-06-18T10:29:26.265Z,100320.58
2018-06-18T10:31:54.149Z,100316.20
2018-06-18T10:34:26.814Z,100320.12
2018-06-18T10:36:59.319Z,100316.42
2018-06-18T10:39:32.298Z,100316.95
2018-06-18T10:42:04.919Z,100322.37
2018-06-18T10:44:32.780Z,100323.73
2018-06-18T10:47:04.919Z,100317.45
2018-06-18T10:49:32.539Z,100309.98
2018-06-18T10:52:00.448Z,100318.27
2018-06-18T10:54:30.322Z,100320.42
2018-06-18T10:56:58.987Z,100319.73
2018-06-18T10:59:29.086Z,100326.16
2018-06-18T11:01:58.090Z,100332.88
2018-06-18T11:04:30.381Z,100331.19
2018-06-18T11:06:59.799Z,100315.89
2018-06-18T11:09:30.386Z,100315.50
2018-06-18T11:11:57.987Z,100323.56
2018-06-18T11:14:26.560Z,100322.95
2018-06-18T11:17:00.401Z,100319.69
2018-06-18T11:19:33.362Z,100315.59
2018-06-18T11:22:07.614Z,100321.34
2018-06-18T11:24:41.310Z,100320.48
2018-06-18T11:27:11.283Z,100324.11
2018-06-18T11:29:38.865Z,100325.11
2018-06-18T11:32:08.268Z,100328.53
2018-06-18T11:34:36.159Z,100327.88
2018-06-18T11:37:03.808Z,100327.23
2018-06-18T11:39:31.484Z,100319.22
2018-06-18T11:41:59.362Z,100327.16
2018-06-18T11:47:03.591Z,100317.92
2018-06-18T11:49:32.085Z,100319.28
2018-06-18T11:52:01.059Z,100324.38
2018-06-18T11:54:28.684Z,100330.66
2018-06-18T11:56:56.795Z,100319.66
2018-06-18T11:59:29.343Z,100325.91
2018-06-18T12:02:03.192Z,100327.47
2018-06-18T12:04:36.896Z,100322.88
2018-06-18T12:07:09.528Z,100329.16
2018-06-18T12:09:42.714Z,100321.02
2018-06-18T12:12:10.794Z,100326.83
2018-06-18T12:14:40.633Z,100330.69
2018-06-18T12:17:08.730Z,100324.44
2018-06-18T12:19:36.310Z,100324.44
2018-06-18T12:22:04.963Z,100333.38
2018-06-18T12:24:34.059Z,100335.87
2018-06-18T12:27:01.818Z,100334.88
2018-06-18T12:29:30.297Z,100325.39
2018-06-18T12:32:00.095Z,100319.11
2018-06-18T12:34:27.752Z,100319.61
2018-06-18T12:36:56.324Z,100326.20
2018-06-18T12:39:26.043Z,100320.94
2018-06-18T12:41:53.688Z,100316.16
2018-06-18T12:44:22.920Z,100315.48
2018-06-18T12:46:56.876Z,100318.69
2018-06-18T12:49:30.150Z,100317.34
2018-06-18T12:52:02.706Z,100307.70
2018-06-18T12:54:35.864Z,100320.61
2018-06-18T12:57:05.672Z,100316.56
2018-06-18T12:59:33.641Z,100306.59
2018-06-18T13:02:01.661Z,100312.56
2018-06-18T13:04:30.377Z,100312.41
2018-06-18T13:06:58.550Z,100309.20
2018-06-18T13:09:26.190Z,100307.48
2018-06-18T13:11:54.845Z,100307.48
2018-06-18T13:14:26.617Z,100313.27
2018-06-18T13:16:56.967Z,100315.45
2018-06-18T13:19:26.431Z,100323.08
2018-06-18T13:21:54.020Z,100326.62
2018-06-18T13:24:21.745Z,100323.73
2018-06-18T13:26:51.888Z,100329.48
2018-06-18T13:29:20.124Z,100328.30
2018-06-18T13:31:48.594Z,100334.11
2018-06-18T13:34:17.067Z,100337.20
2018-06-18T13:36:44.771Z,100341.94
2018-06-18T13:39:17.414Z,100340.79
2018-06-18T13:41:50.479Z,100341.78
2018-06-18T13:44:23.019Z,100342.31
2018-06-18T13:46:57.078Z,100350.62
2018-06-18T13:49:28.686Z,100352.36
2018-06-18T13:51:57.649Z,100349.69
2018-06-18T13:54:27.042Z,100361.26
2018-06-18T13:56:54.642Z,100360.45
2018-06-18T13:59:22.930Z,100355.36
2018-06-18T14:01:50.546Z,100357.21
2018-06-18T14:04:18.271Z,100361.63
2018-06-18T14:06:46.190Z,100361.63
2018-06-18T14:09:14.606Z,100370.27
2018-06-18T14:11:44.410Z,100373.15
2018-06-18T14:14:12.301Z,100368.75
2018-06-18T14:16:39.998Z,100366.58
2018-06-18T14:19:13.366Z,100369.28
2018-06-18T14:21:41.254Z,100375.53
2018-06-18T14:24:09.645Z,100371.47
2018-06-18T14:26:37.233Z,100368.59
2018-06-18T14:29:05.229Z,100368.44
2018-06-18T14:31:38.818Z,100373.37
2018-06-18T14:34:12.981Z,100367.46
2018-06-18T14:36:45.817Z,100370.55
2018-06-18T14:39:18.558Z,100370.41
2018-06-18T14:41:46.158Z,100373.48
2018-06-18T14:44:14.624Z,100368.44
2018-06-18T14:46:42.291Z,100361.84
2018-06-18T14:49:09.975Z,100362.53
2018-06-18T14:51:37.818Z,100358.11
2018-06-18T14:54:05.436Z,100355.08
2018-06-18T14:56:33.111Z,100363.89
2018-06-18T14:59:01.256Z,100352.19
2018-06-18T15:01:31.696Z,100348.24
2018-06-18T15:03:59.362Z,100351.44
2018-06-18T15:06:27.224Z,100345.34
2018-06-18T15:08:54.821Z,100336.34
2018-06-18T15:11:22.430Z,100340.53
2018-06-18T15:13:51.244Z,100341.06
2018-06-18T15:16:23.830Z,100339.38
2018-06-18T15:18:51.431Z,100335.81
2018-06-18T15:21:21.411Z,100334.45
2018-06-18T15:23:49.235Z,100329.20
2018-06-18T15:26:17.733Z,100322.80
2018-06-18T15:28:45.635Z,100323.12
2018-06-18T15:31:14.384Z,100319.05
2018-06-18T15:33:43.426Z,100314.66
2018-06-18T15:36:12.905Z,100323.62
2018-06-18T15:38:40.493Z,100325.50
2018-06-18T15:41:08.949Z,100318.73
2018-06-18T15:43:36.827Z,100322.80
2018-06-18T15:46:05.411Z,100315.31
2018-06-18T15:48:33.715Z,100317.00
2018-06-18T15:51:02.387Z,100317.15
2018-06-18T15:53:30.258Z,100305.93
2018-06-18T15:55:57.847Z,100299.63
2018-06-18T15:58:25.719Z,100302.00
2018-06-18T16:00:54.556Z,100299.23
2018-06-18T16:03:22.139Z,100288.86
2018-06-18T16:05:53.636Z,100291.05
2018-06-18T16:08:22.180Z,100279.65
2018-06-18T16:10:50.377Z,100280.45
2018-06-18T16:13:20.451Z,100275.97
2018-06-18T16:15:48.376Z,100283.38
2018-06-18T16:18:15.989Z,100272.14
2018-06-18T16:20:43.873Z,100277.39
2018-06-18T16:23:11.468Z,100285.02
2018-06-18T16:25:39.865Z,100278.24
2018-06-18T16:28:07.728Z,100285.70
2018-06-18T16:30:36.230Z,100276.20
2018-06-18T16:33:04.298Z,100283.70
2018-06-18T16:35:32.242Z,100284.23
2018-06-18T16:37:59.918Z,100289.83
2018-06-18T16:40:29.146Z,100289.65
2018-06-18T16:42:57.874Z,100283.70
2018-06-18T16:45:27.795Z,100264.38
2018-06-18T16:47:55.619Z,100273.70
2018-06-18T16:50:24.286Z,100271.81
2018-06-18T16:52:52.686Z,100270.78
2018-06-18T16:55:20.317Z,100267.89
2018-06-18T16:57:48.563Z,100266.36
2018-06-18T17:00:17.665Z,100263.64
2018-06-18T17:02:45.290Z,100272.11
2018-06-18T17:05:14.570Z,100273.61
2018-06-18T17:07:42.279Z,100272.25
2018-06-18T17:10:09.858Z,100273.28
2018-06-18T17:12:38.218Z,100272.11
2018-06-18T17:15:05.986Z,100268.22
2018-06-18T17:17:33.807Z,100264.14
2018-06-18T17:20:03.697Z,100263.33
2018-06-18T17:22:31.354Z,100259.75
2018-06-18T17:24:59.070Z,100277.92
2018-06-18T17:27:27.495Z,100268.28
2018-06-18T17:32:30.117Z,100268.78
2018-06-18T17:34:58.061Z,100253.39
2018-06-18T17:37:25.723Z,100259.02
2018-06-18T17:39:53.383Z,100267.27
2018-06-18T17:42:21.321Z,100276.97
2018-06-18T17:44:50.405Z,100277.33
2018-06-18T17:47:17.978Z,100274.29
2018-06-18T17:49:46.956Z,100269.58
2018-06-18T17:52:14.744Z,100267.03
2018-06-18T17:54:42.492Z,100265.36
2018-06-18T17:57:10.731Z,100256.72
2018-06-18T17:59:38.677Z,100255.69
2018-06-18T18:02:06.870Z,100260.91
2018-06-18T18:04:35.270Z,100270.08
2018-06-18T18:07:03.952Z,100270.93
2018-06-18T18:09:33.138Z,100264.15
2018-06-18T18:12:01.723Z,100269.42
2018-06-18T18:14:33.973Z,100276.20
2018-06-18T18:17:02.508Z,100276.20
2018-06-18T18:19:33.570Z,100285.20
2018-06-18T18:22:02.482Z,100280.77
2018-06-18T18:24:31.229Z,100287.55
2018-06-18T18:30:29.598Z,100284.34
2018-06-18T18:32:58.421Z,100287.55
2018-06-18T18:35:26.678Z,100286.88
2018-06-18T18:37:54.875Z,100285.52
2018-06-18T18:40:25.942Z,100281.45
2018-06-18T18:42:58.440Z,100271.43
2018-06-18T18:45:27.405Z,100277.06
2018-06-18T18:47:55.037Z,100270.95
2018-06-18T18:50:23.607Z,100274.20
2018-06-18T18:52:53.293Z,100276.05
2018-06-18T18:55:20.970Z,100274.37
2018-06-18T18:57:48.573Z,100280.83
2018-06-18T19:00:16.490Z,100283.55
2018-06-18T19:02:44.349Z,100280.83
2018-06-18T19:05:11.947Z,100283.22
2018-06-18T19:07:39.921Z,100284.75
2018-06-18T19:10:08.547Z,100283.92
2018-06-18T19:12:38.299Z,100289.52
2018-06-18T19:15:09.838Z,100288.67
2018-06-18T19:17:37.907Z,100282.92
2018-06-18T19:20:05.504Z,100288.16
2018-06-18T19:22:34.319Z,100284.80
2018-06-18T19:25:03.240Z,100286.33
2018-06-18T19:27:30.822Z,100290.77
2018-06-18T19:30:00.596Z,100279.60
2018-06-18T19:32:30.059Z,100285.38
2018-06-18T19:34:57.641Z,100283.37
2018-06-18T19:37:25.553Z,100286.78
2018-06-18T19:39:53.159Z,100283.75
2018-06-18T19:42:20.895Z,100274.61
2018-06-18T19:44:49.043Z,100287.83
2018-06-18T19:47:17.446Z,100283.97
2018-06-18T19:49:46.490Z,100285.50
2018-06-18T19:52:14.375Z,100289.24
2018-06-18T19:54:43.250Z,100282.14
2018-06-18T19:57:10.835Z,100283.84
2018-06-18T20:02:14.581Z,100292.84
2018-06-18T20:04:44.409Z,100297.44
2018-06-18T20:07:13.918Z,100292.69
2018-06-18T20:09:42.701Z,100296.96
2018-06-18T20:12:11.746Z,100302.88
2018-06-18T20:14:40.715Z,100307.97
2018-06-18T20:17:08.299Z,100308.47
2018-06-18T20:19:37.199Z,100310.52
2018-06-18T20:22:05.790Z,100321.53
2018-06-18T20:24:34.699Z,100314.44
2018-06-18T20:27:06.370Z,100322.77
2018-06-18T20:29:34.726Z,100332.42
2018-06-18T20:32:04.342Z,100325.31
2018-06-18T20:34:32.231Z,100321.42
2018-06-18T20:36:59.827Z,100332.76
2018-06-18T20:39:28.213Z,100340.06
2018-06-18T20:41:57.344Z,100342.77
2018-06-18T20:44:27.172Z,100342.44
2018-06-18T20:46:55.337Z,100348.36
2018-06-18T20:49:23.958Z,100343.97
2018-06-18T20:51:52.638Z,100343.64
2018-06-18T20:54:20.224Z,100345.32
2018-06-18T20:56:51.324Z,100345.00
2018-06-18T20:59:19.066Z,100347.20
2018-06-18T21:01:47.634Z,100341.42
2018-06-18T21:04:16.362Z,100346.02
2018-06-18T21:06:44.633Z,100348.73
2018-06-18T21:09:13.798Z,100354.97
2018-06-18T21:11:42.343Z,100346.02
2018-06-18T21:14:12.902Z,100350.58
2018-06-18T21:16:42.766Z,100359.56
2018-06-18T21:19:11.354Z,100361.95
2018-06-18T21:21:38.980Z,100366.34
2018-06-18T21:24:06.571Z,100374.47
2018-06-18T21:26:34.427Z,100373.44
2018-06-18T21:29:03.347Z,100375.30
2018-06-18T21:31:30.946Z,100379.72
2018-06-18T21:34:00.641Z,100381.23
2018-06-18T21:36:28.529Z,100379.36
2018-06-18T21:38:56.112Z,100381.23
2018-06-18T21:41:24.859Z,100389.69
2018-06-18T21:43:55.658Z,100391.05
2018-06-18T21:46:24.013Z,100386.66
2018-06-18T21:48:51.935Z,100387.16
2018-06-18T21:51:20.308Z,100393.09
2018-06-18T21:53:47.894Z,100382.93
2018-06-18T21:56:16.238Z,100393.27
2018-06-18T21:58:44.106Z,100397.00
2018-06-18T22:01:12.664Z,100393.11
2018-06-18T22:03:41.326Z,100399.87
2018-06-18T22:06:08.911Z,100397.01
2018-06-18T22:08:36.787Z,100392.63
2018-06-18T22:11:04.763Z,100387.20
2018-06-18T22:13:32.338Z,100390.77
2018-06-18T22:16:00.215Z,100395.86
2018-06-18T22:18:27.816Z,100384.69
2018-06-18T22:20:55.410Z,100386.05
2018-06-18T22:23:23.287Z,100392.82
2018-06-18T22:25:52.117Z,100392.98
2018-06-18T22:28:20.710Z,100398.08
2018-06-18T22:30:48.716Z,100395.53
2018-06-18T22:33:19.432Z,100394.88
2018-06-18T22:35:47.012Z,100399.60
2018-06-18T22:38:15.227Z,100395.21
2018-06-18T22:40:43.152Z,100396.23
2018-06-18T22:43:11.542Z,100396.93
2018-06-18T22:45:40.246Z,100386.27
2018-06-18T22:48:08.394Z,100395.41
2018-06-18T22:50:36.863Z,100393.53
2018-06-18T22:53:04.560Z,100395.91
2018-06-18T22:55:35.144Z,100389.51
2018-06-18T22:58:02.725Z,100393.20
2018-06-18T23:00:35.228Z,100393.25
2018-06-18T23:03:03.106Z,100396.64
2018-06-18T23:05:31.954Z,100397.50
2018-06-18T23:08:00.050Z,100394.30
2018-06-18T23:10:27.655Z,100393.11
2018-06-18T23:12:55.238Z,100391.59
2018-06-18T23:15:23.094Z,100397.17
2018-06-18T23:17:50.680Z,100402.13
2018-06-18T23:20:18.475Z,100406.02
2018-06-18T23:22:47.189Z,100407.53
2018-06-18T23:25:14.762Z,100409.05
2018-06-18T23:27:42.339Z,100404.00
2018-06-18T23:30:10.827Z,100403.83
2018-06-18T23:32:38.429Z,100406.20
2018-06-18T23:35:06.045Z,100399.80
2018-06-18T23:37:33.636Z,100404.85
2018-06-18T23:40:01.519Z,100409.93
2018-06-18T23:42:29.899Z,100402.01
2018-06-18T23:44:57.494Z,100415.17
2018-06-18T23:47:25.444Z,100410.13
2018-06-18T23:49:53.274Z,100409.27
2018-06-18T23:52:20.854Z,100413.52
2018-06-18T23:54:48.446Z,100408.80
2018-06-18T23:57:18.893Z,100412.33
2018-06-18T23:59:47.030Z,100404.90
